createdAt,value
2022-09-18T00:00:22.838Z,76
2022-09-18T00:01:08.927Z,77
2022-09-18T00:01:54.909Z,76
2022-09-18T00:02:40.896Z,76
2022-09-18T00:03:26.816Z,76
2022-09-18T00:04:12.790Z,76
2022-09-18T00:04:58.834Z,76
2022-09-18T00:05:44.866Z,76
2022-09-18T00:06:30.798Z,76
2022-09-18T00:07:16.807Z,76
2022-09-18T00:08:02.816Z,76
2022-09-18T00:08:48.850Z,76
2022-09-18T00:09:34.795Z,76
2022-09-18T00:10:20.977Z,76
2022-09-18T00:11:06.937Z,77
2022-09-18T00:11:52.807Z,76
2022-09-18T00:12:38.809Z,76
2022-09-18T00:13:24.808Z,77
2022-09-18T00:14:10.838Z,77
2022-09-18T00:14:56.809Z,77
2022-09-18T00:15:43.002Z,77
2022-09-18T00:16:28.940Z,76
2022-09-18T00:17:14.837Z,76
2022-09-18T00:18:00.939Z,77
2022-09-18T00:18:46.821Z,77
2022-09-18T00:19:32.986Z,77
2022-09-18T00:20:18.852Z,77
2022-09-18T00:21:04.953Z,77
2022-09-18T00:21:50.952Z,77
2022-09-18T00:22:36.965Z,77
2022-09-18T00:23:22.838Z,77
2022-09-18T00:24:08.899Z,77
2022-09-18T00:24:54.888Z,77
2022-09-18T00:25:40.868Z,77
2022-09-18T00:26:26.870Z,77
2022-09-18T00:27:12.889Z,77
2022-09-18T00:27:58.893Z,77
2022-09-18T00:28:44.843Z,77
2022-09-18T00:29:30.877Z,77
2022-09-18T00:30:16.945Z,77
2022-09-18T00:31:02.894Z,77
2022-09-18T00:31:49.066Z,77
2022-09-18T00:32:34.917Z,76
2022-09-18T00:33:21.016Z,77
2022-09-18T00:34:07.017Z,77
2022-09-18T00:34:52.874Z,77
2022-09-18T00:35:38.938Z,77
2022-09-18T00:36:24.877Z,78
2022-09-18T00:37:10.900Z,77
2022-09-18T00:37:56.880Z,77
2022-09-18T00:38:42.960Z,77
2022-09-18T00:39:28.888Z,77
2022-09-18T00:40:14.946Z,77
2022-09-18T00:41:00.926Z,77
2022-09-18T00:41:46.867Z,77
2022-09-18T00:42:33.069Z,77
2022-09-18T00:43:19.014Z,77
2022-09-18T00:44:04.918Z,77
2022-09-18T00:44:50.904Z,77
2022-09-18T00:45:37.019Z,77
2022-09-18T00:46:23.001Z,77
2022-09-18T00:47:08.881Z,77
2022-09-18T00:47:54.983Z,77
2022-09-18T00:48:40.898Z,77
2022-09-18T00:49:26.958Z,77
2022-09-18T00:50:12.903Z,77
2022-09-18T00:50:58.918Z,77
2022-09-18T00:51:44.987Z,77
2022-09-18T00:52:31.084Z,77
2022-09-18T00:53:17.262Z,78
2022-09-18T00:54:02.981Z,78
2022-09-18T00:54:48.950Z,78
2022-09-18T00:55:35.004Z,77
2022-09-18T00:56:21.102Z,77
2022-09-18T00:57:06.975Z,77
2022-09-18T00:57:52.934Z,77
2022-09-18T00:58:38.950Z,77
2022-09-18T00:59:24.992Z,77
2022-09-18T01:00:11.053Z,77
2022-09-18T01:00:57.159Z,77
2022-09-18T01:01:42.997Z,77
2022-09-18T01:02:29.103Z,77
2022-09-18T01:03:14.929Z,77
2022-09-18T01:04:01.144Z,78
2022-09-18T01:04:47.016Z,78
2022-09-18T01:05:32.983Z,78
2022-09-18T01:06:18.945Z,78
2022-09-18T01:07:04.966Z,78
2022-09-18T01:07:50.936Z,78
2022-09-18T01:08:40.626Z,78
2022-09-18T01:09:28.601Z,78
2022-09-18T01:10:08.974Z,78
2022-09-18T01:10:55.065Z,78
2022-09-18T01:11:41.010Z,78
2022-09-18T01:12:26.968Z,78
2022-09-18T01:13:13.049Z,78
2022-09-18T01:13:58.995Z,78
2022-09-18T01:14:45.177Z,78
2022-09-18T01:15:31.141Z,78
2022-09-18T01:16:17.347Z,78
2022-09-18T01:17:03.084Z,78
2022-09-18T01:17:48.989Z,78
2022-09-18T01:18:34.974Z,78
2022-09-18T01:19:21.016Z,78
2022-09-18T01:20:07.008Z,78
2022-09-18T01:20:53.052Z,78
2022-09-18T01:21:39.095Z,79
2022-09-18T01:22:25.026Z,79
2022-09-18T01:23:11.080Z,79
2022-09-18T01:23:57.050Z,79
2022-09-18T01:24:43.012Z,79
2022-09-18T01:25:29.480Z,79
2022-09-18T01:26:14.983Z,79
2022-09-18T01:27:01.092Z,79
2022-09-18T01:27:47.123Z,79
2022-09-18T01:28:33.046Z,79
2022-09-18T01:29:19.110Z,78
2022-09-18T01:30:05.067Z,78
2022-09-18T01:30:51.008Z,79
2022-09-18T01:31:37.080Z,79
2022-09-18T01:32:23.064Z,78
2022-09-18T01:33:09.272Z,78
2022-09-18T01:33:55.044Z,78
2022-09-18T01:34:41.135Z,78
2022-09-18T01:35:40.570Z,78
2022-09-18T01:36:13.059Z,79
2022-09-18T01:36:59.025Z,79
2022-09-18T01:37:45.198Z,79
2022-09-18T01:38:31.095Z,79
2022-09-18T01:39:17.084Z,79
2022-09-18T01:40:03.279Z,79
2022-09-18T01:40:49.124Z,79
2022-09-18T01:41:35.093Z,79
2022-09-18T01:42:21.070Z,79
2022-09-18T01:43:07.149Z,79
2022-09-18T01:43:53.048Z,79
2022-09-18T01:44:39.097Z,79
2022-09-18T01:45:25.144Z,79
2022-09-18T01:46:11.186Z,79
2022-09-18T01:46:57.117Z,79
2022-09-18T01:47:43.108Z,79
2022-09-18T01:48:29.094Z,80
2022-09-18T01:49:15.049Z,80
2022-09-18T01:50:01.080Z,80
2022-09-18T01:50:47.089Z,80
2022-09-18T01:51:33.074Z,80
2022-09-18T01:52:19.106Z,80
2022-09-18T01:53:05.090Z,80
2022-09-18T01:53:51.195Z,80
2022-09-18T01:54:37.143Z,80
2022-09-18T01:55:23.192Z,80
2022-09-18T01:56:09.171Z,80
2022-09-18T01:56:55.128Z,80
2022-09-18T01:57:41.231Z,81
2022-09-18T01:58:27.143Z,81
2022-09-18T01:59:13.119Z,81
2022-09-18T01:59:59.209Z,80
2022-09-18T02:00:45.182Z,80
2022-09-18T02:01:31.290Z,80
2022-09-18T02:02:17.294Z,80
2022-09-18T02:03:03.343Z,80
2022-09-18T02:03:49.127Z,81
2022-09-18T02:04:35.141Z,80
2022-09-18T02:05:21.125Z,81
2022-09-18T02:06:07.152Z,81
2022-09-18T02:06:53.145Z,80
2022-09-18T02:07:39.132Z,81
2022-09-18T02:08:25.170Z,81
2022-09-18T02:09:11.147Z,81
2022-09-18T02:09:57.136Z,81
2022-09-18T02:10:43.098Z,81
2022-09-18T02:11:29.127Z,81
2022-09-18T02:12:15.107Z,81
2022-09-18T02:13:01.140Z,81
2022-09-18T02:13:47.134Z,81
2022-09-18T02:14:33.163Z,81
2022-09-18T02:15:19.219Z,81
2022-09-18T02:16:05.198Z,81
2022-09-18T02:16:51.156Z,81
2022-09-18T02:17:37.219Z,81
2022-09-18T02:18:23.112Z,81
2022-09-18T02:19:09.137Z,81
2022-09-18T02:19:55.191Z,81
2022-09-18T02:20:41.143Z,81
2022-09-18T02:21:27.191Z,81
2022-09-18T02:22:13.163Z,81
2022-09-18T02:22:59.190Z,81
2022-09-18T02:23:45.178Z,81
2022-09-18T02:24:31.197Z,81
2022-09-18T02:25:17.217Z,81
2022-09-18T02:26:03.186Z,81
2022-09-18T02:26:49.139Z,81
2022-09-18T02:27:35.165Z,81
2022-09-18T02:28:21.213Z,82
2022-09-18T02:29:07.202Z,81
2022-09-18T02:29:53.126Z,81
2022-09-18T02:30:39.197Z,82
2022-09-18T02:31:25.240Z,81
2022-09-18T02:32:11.109Z,81
2022-09-18T02:32:57.151Z,82
2022-09-18T02:33:43.116Z,82
2022-09-18T02:34:29.161Z,82
2022-09-18T02:35:15.137Z,82
2022-09-18T02:36:01.560Z,82
2022-09-18T02:36:47.159Z,82
2022-09-18T02:37:33.163Z,82
2022-09-18T02:38:19.208Z,82
2022-09-18T02:39:05.201Z,82
2022-09-18T02:39:51.155Z,81
2022-09-18T02:40:37.224Z,81
2022-09-18T02:41:23.175Z,81
2022-09-18T02:42:09.175Z,81
2022-09-18T02:42:55.154Z,81
2022-09-18T02:43:41.163Z,81
2022-09-18T02:44:27.189Z,81
2022-09-18T02:45:13.198Z,81
2022-09-18T02:45:59.178Z,81
2022-09-18T02:46:45.252Z,80
2022-09-18T02:47:31.146Z,80
2022-09-18T02:48:17.184Z,80
2022-09-18T02:49:03.266Z,80
2022-09-18T02:49:49.194Z,80
2022-09-18T02:50:35.216Z,80
2022-09-18T02:51:21.164Z,80
2022-09-18T02:52:07.192Z,80
2022-09-18T02:52:53.184Z,79
2022-09-18T02:53:39.198Z,79
2022-09-18T02:54:25.237Z,79
2022-09-18T02:55:11.177Z,80
2022-09-18T02:55:57.221Z,80
2022-09-18T02:56:43.214Z,80
2022-09-18T02:57:29.164Z,80
2022-09-18T02:58:15.198Z,80
2022-09-18T02:59:01.172Z,80
2022-09-18T02:59:47.314Z,79
2022-09-18T03:00:33.264Z,80
2022-09-18T03:01:19.310Z,80
2022-09-18T03:02:05.361Z,80
2022-09-18T03:02:51.275Z,80
2022-09-18T03:03:37.290Z,80
2022-09-18T03:04:23.214Z,80
2022-09-18T03:05:09.226Z,80
2022-09-18T03:05:55.207Z,80
2022-09-18T03:06:41.208Z,80
2022-09-18T03:07:27.281Z,80
2022-09-18T03:08:13.233Z,79
2022-09-18T03:08:59.252Z,79
2022-09-18T03:09:45.231Z,79
2022-09-18T03:10:31.273Z,79
2022-09-18T03:11:17.258Z,79
2022-09-18T03:12:03.271Z,79
2022-09-18T03:12:49.245Z,79
2022-09-18T03:13:35.292Z,79
2022-09-18T03:14:21.313Z,79
2022-09-18T03:15:07.246Z,79
2022-09-18T03:15:53.287Z,80
2022-09-18T03:16:39.290Z,80
2022-09-18T03:17:25.255Z,80
2022-09-18T03:18:11.265Z,80
2022-09-18T03:18:57.245Z,80
2022-09-18T03:19:43.285Z,80
2022-09-18T03:20:29.576Z,79
2022-09-18T03:21:15.284Z,79
2022-09-18T03:22:01.309Z,80
2022-09-18T03:22:47.247Z,80
2022-09-18T03:23:33.282Z,80
2022-09-18T03:24:19.247Z,80
2022-09-18T03:25:05.305Z,80
2022-09-18T03:25:51.249Z,79
2022-09-18T03:26:37.250Z,79
2022-09-18T03:27:23.311Z,79
2022-09-18T03:28:09.341Z,79
2022-09-18T03:28:55.307Z,80
2022-09-18T03:29:41.307Z,79
2022-09-18T03:30:27.336Z,79
2022-09-18T03:31:13.381Z,79
2022-09-18T03:31:59.279Z,79
2022-09-18T03:32:45.291Z,79
2022-09-18T03:33:31.366Z,79
2022-09-18T03:34:17.433Z,79
2022-09-18T03:35:03.392Z,79
2022-09-18T03:35:49.335Z,80
2022-09-18T03:36:35.301Z,80
2022-09-18T03:37:21.315Z,79
2022-09-18T03:38:07.337Z,79
2022-09-18T03:38:53.263Z,79
2022-09-18T03:39:39.306Z,79
2022-09-18T03:40:25.410Z,79
2022-09-18T03:41:11.296Z,79
2022-09-18T03:41:57.344Z,79
2022-09-18T03:42:43.313Z,79
2022-09-18T03:43:29.305Z,79
2022-09-18T03:44:15.304Z,79
2022-09-18T03:45:02.130Z,79
2022-09-18T03:45:47.374Z,80
2022-09-18T03:46:33.410Z,80
2022-09-18T03:47:19.334Z,80
2022-09-18T03:48:05.364Z,79
2022-09-18T03:48:51.416Z,79
2022-09-18T03:49:37.389Z,79
2022-09-18T03:50:23.301Z,79
2022-09-18T03:51:09.426Z,80
2022-09-18T03:51:55.341Z,80
2022-09-18T03:52:41.323Z,80
2022-09-18T03:53:27.351Z,80
2022-09-18T03:54:13.317Z,80
2022-09-18T03:54:59.368Z,80
2022-09-18T03:55:45.336Z,80
2022-09-18T03:56:31.409Z,80
2022-09-18T03:57:17.326Z,80
2022-09-18T03:58:03.315Z,80
2022-09-18T03:58:49.355Z,80
2022-09-18T03:59:35.343Z,80
2022-09-18T04:00:21.424Z,80
2022-09-18T04:01:07.324Z,80
2022-09-18T04:01:53.369Z,80
2022-09-18T04:02:39.396Z,80
2022-09-18T04:03:25.360Z,80
2022-09-18T04:04:11.349Z,81
2022-09-18T04:04:57.412Z,81
2022-09-18T04:05:43.402Z,81
2022-09-18T04:06:29.416Z,81
2022-09-18T04:07:15.345Z,81
2022-09-18T04:08:01.798Z,82
2022-09-18T04:08:47.400Z,82
2022-09-18T04:09:33.384Z,82
2022-09-18T04:10:19.397Z,82
2022-09-18T04:11:05.414Z,82
2022-09-18T04:11:51.384Z,82
2022-09-18T04:12:37.424Z,83
2022-09-18T04:13:23.353Z,83
2022-09-18T04:14:09.356Z,83
2022-09-18T04:14:55.369Z,83
2022-09-18T04:15:41.473Z,83
2022-09-18T04:16:27.478Z,82
2022-09-18T04:17:13.386Z,81
2022-09-18T04:18:00.278Z,82
2022-09-18T04:18:45.424Z,82
2022-09-18T04:19:31.408Z,82
2022-09-18T04:20:17.384Z,80
2022-09-18T04:21:03.407Z,81
2022-09-18T04:21:49.417Z,81
2022-09-18T04:22:35.437Z,80
2022-09-18T04:23:21.386Z,80
2022-09-18T04:24:07.416Z,80
2022-09-18T04:24:53.402Z,80
2022-09-18T04:25:39.493Z,80
2022-09-18T04:26:25.450Z,80
2022-09-18T04:27:11.375Z,80
2022-09-18T04:27:57.462Z,80
2022-09-18T04:28:43.407Z,80
2022-09-18T04:29:29.429Z,80
2022-09-18T04:30:15.469Z,80
2022-09-18T04:31:01.456Z,79
2022-09-18T04:31:47.592Z,80
2022-09-18T04:32:33.507Z,80
2022-09-18T04:33:19.451Z,80
2022-09-18T04:34:05.430Z,80
2022-09-18T04:34:51.469Z,80
2022-09-18T04:35:37.402Z,80
2022-09-18T04:36:23.444Z,80
2022-09-18T04:37:10.342Z,80
2022-09-18T04:37:55.425Z,80
2022-09-18T04:38:41.521Z,80
2022-09-18T04:39:27.503Z,80
2022-09-18T04:40:13.513Z,80
2022-09-18T04:40:59.433Z,80
2022-09-18T04:41:45.463Z,80
2022-09-18T04:42:31.484Z,80
2022-09-18T04:43:17.480Z,80
2022-09-18T04:44:03.513Z,80
2022-09-18T04:44:49.449Z,80
2022-09-18T04:45:35.540Z,80
2022-09-18T04:46:21.502Z,79
2022-09-18T04:47:07.446Z,79
2022-09-18T04:47:53.467Z,79
2022-09-18T04:48:39.509Z,79
2022-09-18T04:49:25.446Z,79
2022-09-18T04:50:11.498Z,79
2022-09-18T04:50:57.473Z,79
2022-09-18T04:51:43.466Z,79
2022-09-18T04:52:29.451Z,79
2022-09-18T04:53:15.516Z,79
2022-09-18T04:54:01.612Z,79
2022-09-18T04:54:47.453Z,79
2022-09-18T04:55:33.464Z,79
2022-09-18T04:56:19.514Z,79
2022-09-18T04:57:05.493Z,79
2022-09-18T04:57:54.500Z,79
2022-09-18T04:58:37.493Z,79
2022-09-18T04:59:23.509Z,79
2022-09-18T05:00:09.632Z,79
2022-09-18T05:00:55.679Z,79
2022-09-18T05:01:41.572Z,79
2022-09-18T05:02:27.578Z,79
2022-09-18T05:03:13.488Z,79
2022-09-18T05:03:59.474Z,79
2022-09-18T05:04:45.494Z,79
2022-09-18T05:05:31.516Z,79
2022-09-18T05:06:17.571Z,79
2022-09-18T05:07:03.546Z,79
2022-09-18T05:07:49.522Z,79
2022-09-18T05:08:35.548Z,79
2022-09-18T05:09:21.507Z,79
2022-09-18T05:10:07.504Z,79
2022-09-18T05:10:53.511Z,79
2022-09-18T05:11:39.555Z,79
2022-09-18T05:12:25.582Z,79
2022-09-18T05:13:11.519Z,79
2022-09-18T05:13:57.516Z,79
2022-09-18T05:14:43.516Z,79
2022-09-18T05:15:29.862Z,80
2022-09-18T05:16:15.581Z,79
2022-09-18T05:17:01.544Z,79
2022-09-18T05:17:47.510Z,79
2022-09-18T05:18:33.527Z,79
2022-09-18T05:19:19.534Z,79
2022-09-18T05:20:05.572Z,79
2022-09-18T05:20:51.593Z,79
2022-09-18T05:21:37.583Z,79
2022-09-18T05:22:23.641Z,79
2022-09-18T05:23:09.555Z,79
2022-09-18T05:23:55.536Z,79
2022-09-18T05:24:41.591Z,79
2022-09-18T05:25:27.564Z,79
2022-09-18T05:26:13.528Z,79
2022-09-18T05:26:59.538Z,79
2022-09-18T05:27:45.550Z,79
2022-09-18T05:28:31.657Z,79
2022-09-18T05:29:17.655Z,79
2022-09-18T05:30:03.824Z,79
2022-09-18T05:30:49.643Z,79
2022-09-18T05:31:35.711Z,79
2022-09-18T05:32:21.580Z,79
2022-09-18T05:33:07.808Z,79
2022-09-18T05:33:53.582Z,79
2022-09-18T05:34:39.696Z,79
2022-09-18T05:35:25.610Z,78
2022-09-18T05:36:11.585Z,78
2022-09-18T05:36:57.704Z,78
2022-09-18T05:37:43.639Z,78
2022-09-18T05:38:29.617Z,78
2022-09-18T05:39:17.576Z,78
2022-09-18T05:40:01.737Z,79
2022-09-18T05:40:47.623Z,79
2022-09-18T05:41:33.607Z,79
2022-09-18T05:42:19.661Z,78
2022-09-18T05:43:05.640Z,78
2022-09-18T05:43:51.703Z,78
2022-09-18T05:44:37.683Z,79
2022-09-18T05:45:23.729Z,79
2022-09-18T05:46:09.692Z,78
2022-09-18T05:46:55.739Z,78
2022-09-18T05:47:41.682Z,78
2022-09-18T05:48:27.729Z,79
2022-09-18T05:49:13.631Z,79
2022-09-18T05:49:59.674Z,79
2022-09-18T05:50:45.629Z,79
2022-09-18T05:51:31.720Z,78
2022-09-18T05:52:17.696Z,78
2022-09-18T05:53:03.756Z,78
2022-09-18T05:53:49.675Z,78
2022-09-18T05:54:35.659Z,78
2022-09-18T05:55:21.707Z,78
2022-09-18T05:56:07.615Z,78
2022-09-18T05:56:53.690Z,78
2022-09-18T05:57:39.700Z,78
2022-09-18T05:58:25.687Z,78
2022-09-18T05:59:11.661Z,78
2022-09-18T05:59:57.757Z,78
2022-09-18T06:00:43.727Z,78
2022-09-18T06:01:29.750Z,77
2022-09-18T06:02:15.764Z,77
2022-09-18T06:03:01.990Z,77
2022-09-18T06:03:47.714Z,78
2022-09-18T06:04:33.697Z,78
2022-09-18T06:05:19.685Z,78
2022-09-18T06:06:05.673Z,78
2022-09-18T06:06:51.726Z,78
2022-09-18T06:07:37.713Z,77
2022-09-18T06:08:23.695Z,77
2022-09-18T06:09:09.677Z,77
2022-09-18T06:09:55.785Z,77
2022-09-18T06:10:41.694Z,77
2022-09-18T06:11:27.786Z,77
2022-09-18T06:12:13.690Z,77
2022-09-18T06:12:59.706Z,77
2022-09-18T06:13:45.677Z,77
2022-09-18T06:14:31.946Z,78
2022-09-18T06:15:17.871Z,78
2022-09-18T06:16:03.872Z,78
2022-09-18T06:16:49.889Z,78
2022-09-18T06:17:35.753Z,77
2022-09-18T06:18:21.719Z,78
2022-09-18T06:19:07.722Z,77
2022-09-18T06:19:53.744Z,77
2022-09-18T06:20:39.754Z,77
2022-09-18T06:21:25.800Z,77
2022-09-18T06:22:11.716Z,77
2022-09-18T06:22:57.755Z,77
2022-09-18T06:23:43.770Z,77
2022-09-18T06:24:29.734Z,77
2022-09-18T06:25:15.719Z,77
2022-09-18T06:26:01.855Z,77
2022-09-18T06:26:47.793Z,77
2022-09-18T06:27:33.766Z,77
2022-09-18T06:28:19.752Z,77
2022-09-18T06:29:05.753Z,77
2022-09-18T06:29:51.805Z,77
2022-09-18T06:30:37.787Z,77
2022-09-18T06:31:23.833Z,77
2022-09-18T06:32:09.733Z,77
2022-09-18T06:32:55.754Z,77
2022-09-18T06:33:41.808Z,77
2022-09-18T06:34:27.916Z,77
2022-09-18T06:35:13.738Z,77
2022-09-18T06:35:59.805Z,76
2022-09-18T06:36:45.778Z,77
2022-09-18T06:37:31.850Z,77
2022-09-18T06:38:17.845Z,76
2022-09-18T06:39:03.898Z,77
2022-09-18T06:39:49.849Z,77
2022-09-18T06:40:35.863Z,77
2022-09-18T06:41:21.830Z,77
2022-09-18T06:42:07.822Z,77
2022-09-18T06:42:53.782Z,77
2022-09-18T06:43:39.774Z,77
2022-09-18T06:44:25.959Z,77
2022-09-18T06:45:11.902Z,77
2022-09-18T06:45:57.849Z,77
2022-09-18T06:46:43.896Z,78
2022-09-18T06:47:29.788Z,78
2022-09-18T06:48:15.842Z,78
2022-09-18T06:49:01.863Z,78
2022-09-18T06:49:47.801Z,78
2022-09-18T06:50:33.806Z,79
2022-09-18T06:51:19.813Z,79
2022-09-18T06:52:05.847Z,79
2022-09-18T06:52:51.819Z,79
2022-09-18T06:53:37.812Z,79
2022-09-18T06:54:23.857Z,79
2022-09-18T06:55:09.815Z,79
2022-09-18T06:55:55.834Z,79
2022-09-18T06:56:41.804Z,79
2022-09-18T06:57:27.827Z,79
2022-09-18T06:58:13.863Z,79
2022-09-18T06:58:59.803Z,80
2022-09-18T06:59:45.790Z,80
2022-09-18T07:00:33.030Z,80
2022-09-18T07:01:17.890Z,80
2022-09-18T07:02:03.867Z,80
2022-09-18T07:02:49.835Z,80
2022-09-18T07:03:35.854Z,80
2022-09-18T07:04:21.886Z,80
2022-09-18T07:05:07.863Z,80
2022-09-18T07:05:53.834Z,80
2022-09-18T07:06:39.821Z,79
2022-09-18T07:07:25.846Z,80
2022-09-18T07:08:11.887Z,79
2022-09-18T07:08:57.876Z,79
2022-09-18T07:09:43.834Z,79
2022-09-18T07:10:29.906Z,79
2022-09-18T07:11:15.845Z,79
2022-09-18T07:12:01.924Z,79
2022-09-18T07:12:47.949Z,79
2022-09-18T07:13:33.848Z,78
2022-09-18T07:14:19.948Z,78
2022-09-18T07:15:05.916Z,78
2022-09-18T07:15:51.934Z,78
2022-09-18T07:16:37.911Z,78
2022-09-18T07:17:26.177Z,78
2022-09-18T07:18:09.989Z,78
2022-09-18T07:18:55.839Z,78
2022-09-18T07:19:41.876Z,78
2022-09-18T07:20:27.936Z,77
2022-09-18T07:21:13.868Z,78
2022-09-18T07:21:59.840Z,77
2022-09-18T07:22:47.571Z,77
2022-09-18T07:23:32.562Z,77
2022-09-18T07:24:17.962Z,77
2022-09-18T07:25:03.962Z,76
2022-09-18T07:25:49.925Z,76
2022-09-18T07:26:35.888Z,76
2022-09-18T07:27:21.910Z,76
2022-09-18T07:28:08.165Z,76
2022-09-18T07:28:53.976Z,76
2022-09-18T07:29:39.894Z,76
2022-09-18T07:30:25.967Z,76
2022-09-18T07:31:12.175Z,76
2022-09-18T07:31:58.047Z,75
2022-09-18T07:32:43.917Z,76
2022-09-18T07:33:29.911Z,75
2022-09-18T07:34:15.900Z,75
2022-09-18T07:35:02.022Z,75
2022-09-18T07:35:48.048Z,75
2022-09-18T07:36:33.913Z,75
2022-09-18T07:37:19.976Z,75
2022-09-18T07:38:06.004Z,75
2022-09-18T07:38:51.952Z,75
2022-09-18T07:39:37.915Z,75
2022-09-18T07:40:24.031Z,75
2022-09-18T07:41:09.909Z,75
2022-09-18T07:41:55.927Z,76
2022-09-18T07:42:41.946Z,76
2022-09-18T07:43:27.941Z,75
2022-09-18T07:44:13.925Z,75
2022-09-18T07:44:59.991Z,75
2022-09-18T07:45:46.086Z,74
2022-09-18T07:46:32.665Z,75
2022-09-18T07:47:17.999Z,75
2022-09-18T07:48:04.029Z,75
2022-09-18T07:48:50.068Z,75
2022-09-18T07:49:35.943Z,74
2022-09-18T07:50:22.122Z,74
2022-09-18T07:51:08.010Z,74
2022-09-18T07:51:53.969Z,74
2022-09-18T07:52:39.982Z,74
2022-09-18T07:53:25.979Z,73
2022-09-18T07:54:12.201Z,73
2022-09-18T07:54:58.019Z,73
2022-09-18T07:55:43.957Z,74
2022-09-18T07:56:30.043Z,74
2022-09-18T07:57:16.000Z,73
2022-09-18T07:58:02.067Z,73
2022-09-18T07:58:48.022Z,73
2022-09-18T07:59:34.034Z,73
2022-09-18T08:00:20.025Z,73
2022-09-18T08:01:05.959Z,73
2022-09-18T08:01:52.152Z,73
2022-09-18T08:02:38.071Z,72
2022-09-18T08:03:24.017Z,72
2022-09-18T08:04:10.046Z,72
2022-09-18T08:04:55.998Z,72
2022-09-18T08:05:42.117Z,72
2022-09-18T08:06:28.083Z,72
2022-09-18T08:07:14.031Z,72
2022-09-18T08:07:59.975Z,72
2022-09-18T08:08:46.881Z,72
2022-09-18T08:09:32.858Z,72
2022-09-18T08:10:18.073Z,72
2022-09-18T08:11:04.127Z,72
2022-09-18T08:11:50.120Z,72
2022-09-18T08:12:36.139Z,71
2022-09-18T08:13:22.165Z,71
2022-09-18T08:14:08.056Z,70
2022-09-18T08:14:53.983Z,71
2022-09-18T08:15:40.112Z,71
2022-09-18T08:16:26.131Z,71
2022-09-18T08:17:12.406Z,70
2022-09-18T08:17:58.210Z,70
2022-09-18T08:18:44.315Z,70
2022-09-18T08:19:30.217Z,70
2022-09-18T08:20:16.176Z,70
2022-09-18T08:21:02.242Z,70
2022-09-18T08:21:48.150Z,70
2022-09-18T08:22:34.117Z,70
2022-09-18T08:23:20.198Z,70
2022-09-18T08:24:06.242Z,71
2022-09-18T08:24:52.202Z,70
2022-09-18T08:25:38.158Z,69
2022-09-18T08:26:24.220Z,69
2022-09-18T08:27:10.052Z,68
2022-09-18T08:27:56.018Z,69
2022-09-18T08:28:42.301Z,69
2022-09-18T08:29:28.063Z,69
2022-09-18T08:30:14.112Z,69
2022-09-18T08:31:00.155Z,68
2022-09-18T08:31:46.126Z,69
2022-09-18T08:32:32.983Z,69
2022-09-18T08:33:18.123Z,69
2022-09-18T08:34:04.109Z,68
2022-09-18T08:34:50.042Z,68
2022-09-18T08:35:36.095Z,68
2022-09-18T08:36:22.179Z,68
2022-09-18T08:37:08.074Z,69
2022-09-18T08:37:54.044Z,69
2022-09-18T08:38:40.042Z,69
2022-09-18T08:39:26.094Z,69
2022-09-18T08:40:12.200Z,68
2022-09-18T08:40:58.173Z,69
2022-09-18T08:41:44.073Z,69
2022-09-18T08:42:30.080Z,70
2022-09-18T08:43:16.048Z,69
2022-09-18T08:44:02.123Z,69
2022-09-18T08:44:48.141Z,69
2022-09-18T08:45:34.177Z,69
2022-09-18T08:46:20.120Z,69
2022-09-18T08:47:06.182Z,69
2022-09-18T08:47:52.207Z,69
2022-09-18T08:48:38.099Z,69
2022-09-18T08:49:24.088Z,69
2022-09-18T08:50:10.119Z,69
2022-09-18T08:50:56.141Z,69
2022-09-18T08:51:42.324Z,69
2022-09-18T08:52:28.181Z,69
2022-09-18T08:53:14.160Z,69
2022-09-18T08:54:00.192Z,69
2022-09-18T08:54:46.087Z,69
2022-09-18T08:55:32.824Z,70
2022-09-18T08:56:18.090Z,70
2022-09-18T08:57:04.148Z,70
2022-09-18T08:57:50.146Z,69
2022-09-18T08:58:36.130Z,70
2022-09-18T08:59:22.163Z,70
2022-09-18T09:00:08.211Z,70
2022-09-18T09:00:54.290Z,70
2022-09-18T09:01:40.146Z,69
2022-09-18T09:02:26.261Z,69
2022-09-18T09:03:12.517Z,69
2022-09-18T09:03:58.272Z,69
2022-09-18T09:04:44.123Z,69
2022-09-18T09:05:30.138Z,69
2022-09-18T09:06:16.204Z,69
2022-09-18T09:07:02.223Z,69
2022-09-18T09:07:48.352Z,69
2022-09-18T09:08:34.279Z,69
2022-09-18T09:09:21.500Z,68
2022-09-18T09:10:06.297Z,68
2022-09-18T09:10:52.328Z,68
2022-09-18T09:11:38.281Z,68
2022-09-18T09:12:24.258Z,68
2022-09-18T09:13:10.265Z,67
2022-09-18T09:13:56.356Z,67
2022-09-18T09:14:56.687Z,67
2022-09-18T09:15:28.420Z,67
2022-09-18T09:16:14.359Z,67
2022-09-18T09:17:00.279Z,67
2022-09-18T09:17:46.297Z,68
2022-09-18T09:18:33.053Z,67
2022-09-18T09:19:18.378Z,67
2022-09-18T09:20:04.359Z,66
2022-09-18T09:20:50.282Z,66
2022-09-18T09:21:36.302Z,67
2022-09-18T09:22:22.209Z,66
2022-09-18T09:23:08.157Z,66
2022-09-18T09:23:54.224Z,66
2022-09-18T09:24:40.174Z,66
2022-09-18T09:25:26.196Z,66
2022-09-18T09:26:12.400Z,67
2022-09-18T09:26:58.227Z,66
2022-09-18T09:27:44.178Z,66
2022-09-18T09:28:30.209Z,66
2022-09-18T09:29:16.182Z,66
2022-09-18T09:30:02.658Z,66
2022-09-18T09:30:48.421Z,66
2022-09-18T09:31:34.423Z,66
2022-09-18T09:32:20.335Z,65
2022-09-18T09:33:06.442Z,65
2022-09-18T09:33:52.389Z,66
2022-09-18T09:34:38.373Z,64
2022-09-18T09:35:24.309Z,65
2022-09-18T09:36:10.397Z,64
2022-09-18T09:36:57.499Z,64
2022-09-18T09:37:41.522Z,64
2022-09-18T09:38:28.426Z,64
2022-09-18T09:39:14.375Z,63
2022-09-18T09:40:00.410Z,63
2022-09-18T09:40:46.380Z,63
2022-09-18T09:41:32.989Z,62
2022-09-18T09:42:18.348Z,62
2022-09-18T09:43:04.361Z,61
2022-09-18T09:43:50.376Z,61
2022-09-18T09:44:36.354Z,60
2022-09-18T09:45:22.500Z,60
2022-09-18T09:46:08.453Z,61
2022-09-18T09:46:54.412Z,60
2022-09-18T09:47:40.430Z,62
2022-09-18T09:48:26.413Z,62
2022-09-18T09:49:12.678Z,62
2022-09-18T09:49:58.450Z,63
2022-09-18T09:50:44.413Z,61
2022-09-18T09:51:30.324Z,60
2022-09-18T09:52:16.458Z,61
2022-09-18T09:53:02.379Z,61
2022-09-18T09:53:48.364Z,60
2022-09-18T09:54:34.285Z,60
2022-09-18T09:55:20.240Z,60
2022-09-18T09:56:06.298Z,60
2022-09-18T09:56:52.246Z,60
2022-09-18T09:57:38.458Z,60
2022-09-18T09:58:24.343Z,61
2022-09-18T09:59:10.310Z,61
2022-09-18T09:59:56.302Z,61
2022-09-18T10:00:42.580Z,61
2022-09-18T10:01:28.331Z,61
2022-09-18T10:02:14.441Z,61
2022-09-18T10:03:00.395Z,62
2022-09-18T10:03:46.300Z,60
2022-09-18T10:04:32.911Z,61
2022-09-18T10:05:18.342Z,61
2022-09-18T10:06:04.544Z,62
2022-09-18T10:06:50.294Z,63
2022-09-18T10:07:36.332Z,62
2022-09-18T10:08:22.318Z,62
2022-09-18T10:09:08.481Z,62
2022-09-18T10:09:54.287Z,62
2022-09-18T10:10:40.318Z,62
2022-09-18T10:11:26.277Z,63
2022-09-18T10:12:12.545Z,62
2022-09-18T10:12:58.325Z,62
2022-09-18T10:13:44.319Z,62
2022-09-18T10:14:30.472Z,63
2022-09-18T10:15:16.357Z,63
2022-09-18T10:16:02.504Z,62
2022-09-18T10:16:48.365Z,61
2022-09-18T10:17:34.360Z,60
2022-09-18T10:18:20.385Z,62
2022-09-18T10:19:06.371Z,61
2022-09-18T10:19:52.397Z,61
2022-09-18T10:20:38.386Z,62
2022-09-18T10:21:24.391Z,62
2022-09-18T10:22:10.387Z,61
2022-09-18T10:22:56.350Z,61
2022-09-18T10:23:42.656Z,61
2022-09-18T10:24:28.381Z,61
2022-09-18T10:25:14.350Z,61
2022-09-18T10:26:00.393Z,61
2022-09-18T10:26:46.416Z,61
2022-09-18T10:27:33.174Z,61
2022-09-18T10:28:18.391Z,61
2022-09-18T10:29:04.375Z,61
2022-09-18T10:29:50.601Z,61
2022-09-18T10:30:36.442Z,61
2022-09-18T10:31:21.739Z,61
2022-09-18T10:32:08.361Z,60
2022-09-18T10:32:54.443Z,60
2022-09-18T10:33:40.477Z,61
2022-09-18T10:34:26.533Z,61
2022-09-18T10:35:12.655Z,60
2022-09-18T10:35:58.448Z,61
2022-09-18T10:36:44.498Z,60
2022-09-18T10:37:30.374Z,61
2022-09-18T10:38:16.469Z,62
2022-09-18T10:39:02.518Z,61
2022-09-18T10:39:48.455Z,60
2022-09-18T10:40:34.562Z,59
2022-09-18T10:41:20.406Z,60
2022-09-18T10:42:06.427Z,59
2022-09-18T10:42:52.452Z,59
2022-09-18T10:43:38.396Z,60
2022-09-18T10:44:24.440Z,60
2022-09-18T10:45:10.503Z,60
2022-09-18T10:45:56.428Z,60
2022-09-18T10:46:42.744Z,59
2022-09-18T10:47:28.462Z,59
2022-09-18T10:48:14.403Z,60
2022-09-18T10:49:00.399Z,60
2022-09-18T10:49:46.447Z,59
2022-09-18T10:50:34.518Z,59
2022-09-18T10:51:18.560Z,59
2022-09-18T10:52:04.537Z,58
2022-09-18T10:52:50.434Z,59
2022-09-18T10:53:36.480Z,59
2022-09-18T10:54:22.476Z,60
2022-09-18T10:55:08.417Z,60
2022-09-18T10:55:56.065Z,60